createdAt,value
2023-09-29T00:00:23.883Z,8
2023-09-29T00:15:24.234Z,8
2023-09-29T00:30:23.819Z,8
2023-09-29T00:45:23.718Z,8
2023-09-29T01:00:24.566Z,7
2023-09-29T01:15:23.789Z,7
2023-09-29T01:30:24.336Z,7
2023-09-29T01:45:23.843Z,7
2023-09-29T02:00:24.355Z,8
2023-09-29T02:15:24.326Z,7
2023-09-29T02:30:23.999Z,9
2023-09-29T02:45:24.334Z,7
2023-09-29T03:00:24.083Z,8
2023-09-29T03:15:24.322Z,8
2023-09-29T03:30:24.624Z,9
2023-09-29T03:45:24.652Z,8
2023-09-29T04:00:24.440Z,7
2023-09-29T04:15:16.062Z,6
2023-09-29T04:30:23.976Z,9
2023-09-29T04:45:24.331Z,10
2023-09-29T05:00:24.979Z,8
2023-09-29T05:15:24.401Z,12
2023-09-29T05:30:24.584Z,12
2023-09-29T05:45:24.257Z,12
2023-09-29T06:00:24.238Z,10
2023-09-29T06:01:41.678Z,11
2023-09-29T06:16:05.104Z,14
2023-09-29T06:31:05.072Z,14
2023-09-29T06:46:05.649Z,9
2023-09-29T07:01:07.655Z,9
2023-09-29T07:16:04.675Z,8
2023-09-29T07:31:04.932Z,7
2023-09-29T07:46:05.472Z,6
2023-09-29T08:01:05.706Z,6
2023-09-29T08:16:05.333Z,5
2023-09-29T08:31:05.955Z,5
2023-09-29T08:46:05.248Z,6
2023-09-29T09:01:04.895Z,5
2023-09-29T09:16:04.814Z,6
2023-09-29T09:31:04.723Z,5
2023-09-29T09:46:05.689Z,5
2023-09-29T10:01:05.592Z,7
2023-09-29T10:16:05.694Z,5
2023-09-29T10:45:24.736Z,4
2023-09-29T11:00:23.649Z,3
2023-09-29T11:30:23.578Z,1
2023-09-29T11:30:32.958Z,1
2023-09-29T11:45:23.675Z,3
2023-09-29T12:00:24.696Z,4
2023-09-29T12:15:23.979Z,4
2023-09-29T12:30:24.516Z,5
2023-09-29T12:45:24.926Z,4
2023-09-29T13:00:24.416Z,3
2023-09-29T13:15:24.280Z,4
2023-09-29T13:30:23.606Z,3
2023-09-29T13:45:24.698Z,4
2023-09-29T14:00:24.775Z,3
2023-09-29T14:15:24.053Z,3
2023-09-29T14:30:24.202Z,2
2023-09-29T14:45:24.195Z,3
2023-09-29T15:00:24.886Z,3
2023-09-29T15:15:24.463Z,4
2023-09-29T15:30:24.571Z,3
2023-09-29T15:45:24.028Z,3
2023-09-29T16:00:24.088Z,6
2023-09-29T16:15:24.328Z,7
2023-09-29T16:30:24.598Z,11
2023-09-29T16:45:24.210Z,10
2023-09-29T17:00:23.992Z,5
2023-09-29T17:15:24.379Z,4
2023-09-29T17:30:23.732Z,6
2023-09-29T17:45:24.415Z,8
2023-09-29T18:00:24.034Z,8
2023-09-29T18:15:24.046Z,5
2023-09-29T18:30:24.563Z,6
2023-09-29T18:45:24.479Z,13
2023-09-29T19:00:23.851Z,7
2023-09-29T19:15:24.652Z,5
2023-09-29T19:30:24.375Z,5
2023-09-29T19:45:24.039Z,6
2023-09-29T20:00:24.032Z,6
2023-09-29T20:15:24.124Z,6
2023-09-29T20:30:24.405Z,7
2023-09-29T20:45:24.561Z,6
2023-09-29T21:00:24.308Z,6
2023-09-29T21:15:23.939Z,6
2023-09-29T21:30:24.099Z,7
2023-09-29T21:45:23.990Z,6
2023-09-29T22:00:24.116Z,7
2023-09-29T22:15:24.063Z,6
2023-09-29T22:30:24.296Z,8
2023-09-29T22:45:24.005Z,6
2023-09-29T23:00:24.220Z,6
2023-09-29T23:15:23.612Z,6
2023-09-29T23:30:24.705Z,8
2023-09-29T23:45:24.335Z,6
